logo
App data

Risk

Draft! Attack! Fortify! Play the original game of strategy and world domination — now for your PC. Enjoy the classic look and fun of RISK in an exciting new interactive experience. Play two ways as you strategize over the map and set out to conquer the world.
Store | Hub | SteamDB
Developer: Sperasoft, Inc. Publisher: PopCap
Genre: Strategy, Casual
Languages: English
Tags: Strategy (31), Casual (27), Board Game (24), Multiplayer (7)
Category: Single-player
Release date: Jun 10, 2013
Price: $9.99
Score rank: 6% Userscore: 39% Old userscore: 40%
Owners: 20,000 .. 50,000
Followers: 887
Peak concurrent players yesterday: 32
YouTube stats: 76,880 views and 1,316 comments for videos uploaded last week, 42 new videos uploaded yesterday.
Playtime total: 03:23 (average) 04:24 (median)

Steam Spy is still in beta, so expect major bugs.

Owners data:

Access restricted.

This feature is only available to users with special access rights. Sorry.

If you want to proceed, you need to register or log in first and then back Steam Spy on Patreon. Look for Indie or Pro pledge.

Don't forget to use the same email as on Steam Spy!

Audience in 2 weeks:

Access restricted.

This feature is only available to users with special access rights. Sorry.

If you want to proceed, you need to register or log in first and then back Steam Spy on Patreon. Look for Indie or Pro pledge.

Don't forget to use the same email as on Steam Spy!

Peak daily concurrent players:

CCU data courtesy of SteamDB. Used with permission.

Hourly concurrent players:

YouTube:

The views data is based on top 50 videos uploaded last week. Actual number of views might be more than the number shown.

The displayed number of videos uploaded yesterday is limited to 50, so if there were more videos uploaded, the number will still show 50.

If the game has commonly used word as its name (like "FEAR" or "Volume") its number of Youtube views might be wrong.

Games similar to this one:

# Game Release date
Price
Score rank
(Userscore / Metascore)
Owners
Players
Playtime (Median)
1 Little Big Adventure 2 Oct 20, 2015 $3.9999% (98%)20,000 .. 50,0002.7%00:01 (00:00)
2 Seven Kingdoms: Ancient Adversaries Mar 22, 2016 $5.99N/A (N/A)0 .. 20,0000%00:00 (00:00)
3 Dungeon Warfare Nov 4, 2015 $9.9997% (97%)50,000 .. 100,0001.3%01:53 (00:37)
4 Defend The Highlands Nov 6, 2015 $2.4995% (96%)100,000 .. 200,0000.48%00:16 (00:10)
5 Voodoo Vince: Remastered Apr 17, 2017 $14.9995% (96%/63%)0 .. 20,0000%00:00 (00:00)
6 Militia Dec 2, 2015 $5.9995% (96%)0 .. 20,0000%00:00 (00:00)
7 Supercharged Robot VULKAISER Jun 4, 2015 $4.9993% (95%)20,000 .. 50,0000%00:00 (00:00)
8 Chicken Invaders 2 Mar 4, 2016 $3.9993% (95%)0 .. 20,0002.44%00:33 (00:11)
9 Hegemony Gold: Wars of Ancient Greece Mar 30, 2012 $14.9993% (95%)20,000 .. 50,0000%00:00 (00:00)
10 Flywrench Aug 24, 2015 $6.9993% (95%)0 .. 20,0000%00:00 (00:00)
11 Outcast 1.1 Dec 18, 2014 $5.9990% (94%)20,000 .. 50,0000%00:00 (00:00)
12 Adventure in the Tower of Flight Dec 23, 2015 $4.9990% (94%)0 .. 20,0000%00:00 (00:00)
13 Neon Chrome Apr 28, 2016 $14.9990% (94%/74%)200,000 .. 500,0000%00:00 (00:00)
14 Gold Rush! Classic Dec 23, 1988 $2.9990% (94%)200,000 .. 500,0000.25%01:27 (00:56)
15 Stick it to The Man! Dec 13, 2013 $7.9990% (94%/83%)20,000 .. 50,0000%00:00 (00:00)
16 Majesty Gold HD Sep 4, 2009 $9.9990% (94%)100,000 .. 200,0000.54%00:01 (00:00)
17 Star Trek: Judgment Rites May 8, 2015 $9.99N/A (N/A)0 .. 20,0000%00:00 (00:00)
18 PixelJunk Shooter Nov 11, 2013 $8.9990% (94%/73%)100,000 .. 200,0000.28%00:36 (00:12)
19 Audio Arena Jul 25, 2016 $6.99N/A (N/A)0 .. 20,0000%00:00 (00:00)
20 Templar Battleforce Sep 21, 2015 $9.9990% (94%)20,000 .. 50,0003.45%01:12 (00:24)
21 Anarcute Jul 12, 2016 $14.9987% (93%/79%)0 .. 20,0006.67%00:13 (00:05)
22 Eufloria HD Oct 14, 2014 $14.9987% (93%)200,000 .. 500,0000%00:00 (00:00)
23 Kalimba Apr 22, 2015 $9.9987% (93%/81%)0 .. 20,0004.17%01:32 (00:30)
24 Major Mayhem Feb 24, 2014 $4.9987% (93%)20,000 .. 50,0000%00:00 (00:00)
25 Kick Ass Commandos Nov 17, 2016 $9.9987% (93%)20,000 .. 50,0000%00:00 (00:00)
26 Super Trench Attack! Jul 24, 2014 $4.9987% (93%)50,000 .. 100,0000.4%00:01 (00:00)
27 Run or Die Dec 11, 2014 $4.9987% (93%)0 .. 20,0000%00:00 (00:00)
28 Handsome Mr. Frog Aug 8, 2016 $0.9987% (93%)0 .. 20,0000%00:00 (00:00)
29 Pharaoh Rebirth+ Mar 17, 2016 $9.9987% (93%)0 .. 20,0000%00:00 (00:00)
30 Great Big War Game Aug 28, 2012 $6.99N/A (N/A)0 .. 20,0000%00:00 (00:00)
31 Death Ray Manta SE Sep 17, 2015 $1.9984% (92%)20,000 .. 50,0000%00:00 (00:00)
32 Ys VI: The Ark of Napishtim Apr 28, 2015 $19.9984% (92%/76%)50,000 .. 100,0000%00:00 (00:00)
33 Counter Spell Oct 5, 2015 $9.9984% (92%)0 .. 20,0000%00:00 (00:00)
34 Wars and Warriors: Joan of Arc Feb 7, 2004 $6.9984% (92%/60%)0 .. 20,0000%00:00 (00:00)
35 Bleed Jul 3, 2013 $4.9984% (92%)100,000 .. 200,0000%00:00 (00:00)
36 Tallowmere Mar 3, 2015 $3.9984% (92%)20,000 .. 50,0000%00:00 (00:00)
37 Shmups Skill Test シューティング技能検定 Jun 9, 2016 $4.99N/A (N/A)0 .. 20,0000%00:00 (00:00)
38 Khet 2.0 Oct 1, 2014 $9.9984% (92%)50,000 .. 100,0000%00:00 (00:00)
39 Ittle Dew Jul 23, 2013 $9.9984% (92%/67%)100,000 .. 200,0000.38%01:08 (00:22)
40 Knightmare Tower Jun 16, 2014 $3.9984% (92%)0 .. 20,0000%00:00 (00:00)
41 Miracle Fly Oct 26, 2015 $7.9984% (92%)20,000 .. 50,0000%00:00 (00:00)
42 Mad Bullets Jun 10, 2016 $2.9984% (92%)0 .. 20,0000%00:00 (00:00)
43 Skulls of the Shogun Jul 29, 2013 $9.9980% (91%/72%)100,000 .. 200,0000.3%00:46 (00:15)
44 Clash of Puppets Dec 16, 2014 $4.9980% (91%)0 .. 20,0000%00:00 (00:00)
45 Super Cyborg Jul 8, 2015 $4.9980% (91%)20,000 .. 50,0000%00:00 (00:00)
46 Dandy: Or a Brief Glimpse Into the Life of the Candy Alchemist Aug 4, 2015 $9.99N/A (N/A)0 .. 20,0000%00:00 (00:00)
47 Apocalypse: Party's Over May 30, 2016 N/A80% (91%)0 .. 20,0000%00:00 (00:00)
48 Codename: Panzers, Phase Two Feb 18, 2016 $14.9980% (91%/80%)0 .. 20,0000%00:00 (00:00)
49 Warrior Kings: Battles Sep 30, 2003 $9.9980% (91%/64%)0 .. 20,0000%00:00 (00:00)
50 Kohan II: Kings of War Aug 24, 2011 $9.9980% (91%/81%)20,000 .. 50,0000%00:00 (00:00)
51 Blue Estate The Game Apr 8, 2015 $12.9980% (91%/59%)50,000 .. 100,0000%00:00 (00:00)
52 The Juicer Sep 11, 2015 $0.9980% (91%)20,000 .. 50,0000%00:00 (00:00)
53 Below Kryll Sep 7, 2015 $4.9980% (91%)0 .. 20,0000%00:00 (00:00)
54 Flashpoint Campaigns: Red Storm Player's Edition Oct 9, 2013 $49.9980% (91%)0 .. 20,0000%00:00 (00:00)
55 Near Death Aug 2, 2016 $14.9980% (91%/70%)20,000 .. 50,0000%00:00 (00:00)
56 Momodora III Jul 1, 2014 $1.9980% (91%)50,000 .. 100,0000%00:00 (00:00)
57 Angry Video Game Nerd II: ASSimilation Mar 29, 2016 $9.9980% (91%)20,000 .. 50,0000%00:00 (00:00)
58 Battle Academy 2: Eastern Front Sep 12, 2014 $39.9977% (90%/78%)0 .. 20,0000%00:00 (00:00)
59 System Crash Aug 1, 2016 $14.9977% (90%)0 .. 20,0000%00:00 (00:00)
60 Sneaky Sneaky Nov 12, 2014 $4.9977% (90%/63%)0 .. 20,0000%00:00 (00:00)
61 Headlander Jul 25, 2016 $19.9977% (90%/74%)100,000 .. 200,0000%00:00 (00:00)
62 Zombo Buster Rising Oct 2, 2016 $1.9977% (90%)0 .. 20,0000%00:00 (00:00)
63 Planet of the Eyes Aug 24, 2015 $9.9977% (90%/66%)50,000 .. 100,0000%00:00 (00:00)
64 Superstatic Sep 15, 2015 $4.99N/A (N/A)0 .. 20,0000%00:00 (00:00)
65 Valley Aug 24, 2016 $19.9977% (90%)200,000 .. 500,0002.39%04:04 (03:47)
66 Amaranthine Apr 6, 2016 $2.9977% (90%)0 .. 20,0000%00:00 (00:00)
67 RIVE: Wreck, Hack, Die, Retry! Sep 13, 2016 $14.9977% (90%)200,000 .. 500,0000.19%00:23 (00:07)
68 Ace of Seafood Apr 8, 2016 $11.9977% (90%)0 .. 20,0000%00:00 (00:00)
69 Warhammer 40,000: Dawn of War – Winter Assault Aug 7, 2007 $12.9977% (90%)500,000 .. 1,000,0000.38%00:57 (00:50)
70 MoonBase Commander Aug 13, 2002 $5.9977% (90%/77%)0 .. 20,0000%00:00 (00:00)
71 Wild Guns Reloaded Jul 11, 2017 $14.9977% (90%)0 .. 20,0000%00:00 (00:00)
72 Swords and Soldiers HD Dec 2, 2010 $9.9977% (90%)100,000 .. 200,0000.12%02:20 (01:09)
73 Weird Hero Nov 18, 2016 $3.9974% (89%)0 .. 20,0000%00:00 (00:00)
74 Earth Defense Force: Insect Armageddon Dec 14, 2011 $9.9974% (89%/69%)50,000 .. 100,0000%00:00 (00:00)
75 Tcheco in the Castle of Lucio Jun 22, 2015 $0.4974% (89%)50,000 .. 100,0000.83%01:34 (01:02)
76 Lethe - Episode One Aug 1, 2016 $14.9974% (89%)0 .. 20,0003.28%04:28 (01:42)
77 Reverse Crawl Sep 24, 2015 $5.9974% (89%)20,000 .. 50,0000%00:00 (00:00)
78 Battlepillars Gold Edition Apr 28, 2014 $4.9974% (89%)20,000 .. 50,0001.25%04:13 (01:24)
79 Armed with Wings: Rearmed Jun 1, 2017 $9.9974% (89%)20,000 .. 50,0000%00:00 (00:00)
80 Death's Hangover Jan 20, 2017 $0.4974% (89%)20,000 .. 50,0001.98%00:53 (00:35)
81 Silent Storm Gold Edition Sep 9, 2004 $9.9974% (89%/83%)100,000 .. 200,0000%00:00 (00:00)
82 CastleStorm Jul 29, 2013 $9.9974% (89%/73%)100,000 .. 200,0000.42%00:18 (00:06)
83 Explosionade Sep 23, 2015 $3.99N/A (N/A)0 .. 20,0000%00:00 (00:00)
84 Viking Squad Oct 4, 2016 $14.9972% (88%)0 .. 20,0000%00:00 (00:00)
85 Kohan: Ahriman's Gift Aug 24, 2011 $9.99N/A (N/A/79%)0 .. 20,00010%00:27 (00:09)
86 Anodyne Mar 22, 2013 $9.9972% (88%/75%)100,000 .. 200,0000%00:00 (00:00)
87 The Fall May 30, 2014 $9.9972% (88%/76%)200,000 .. 500,0000.25%333:20 (111:06)
88 Greed Corp Dec 10, 2010 $9.9972% (88%/76%)200,000 .. 500,0000%00:00 (00:00)
89 Earn to Die 2 May 5, 2016 $4.9972% (88%)20,000 .. 50,0004.35%00:09 (00:03)
90 Darknet Jun 8, 2017 $14.9972% (88%)0 .. 20,0000%00:00 (00:00)
91 TRON 2.0 Aug 22, 2003 $9.9972% (88%/84%)20,000 .. 50,0000%00:00 (00:00)
92 Fort Meow Jun 25, 2015 $7.9972% (88%)0 .. 20,0000%00:00 (00:00)
93 Mr. Shifty Apr 13, 2017 $14.9972% (88%)50,000 .. 100,0000.22%00:01 (00:00)
94 Atom Zombie Smasher Mar 14, 2011 $9.9972% (88%/75%)200,000 .. 500,0000.26%00:59 (00:19)
95 Civilization IV: Warlords Apr 6, 2007 $4.9969% (87%/84%)1,000,000 .. 2,000,0000%00:00 (00:00)
96 Time Rifters Oct 21, 2014 $9.9969% (87%)0 .. 20,0003.45%00:03 (00:01)
97 Rush for Berlin Gold Oct 29, 2009 $4.9969% (87%/76%)20,000 .. 50,0000%00:00 (00:00)
98 Lethal VR Nov 8, 2016 $14.9969% (87%/66%)0 .. 20,0009.09%00:07 (00:02)
99 Shadow Blade: Reload Aug 10, 2015 $14.9969% (87%/70%)20,000 .. 50,0000%00:00 (00:00)
100 Sang-Froid - Tales of Werewolves Apr 5, 2013 Free69% (87%/79%)200,000 .. 500,0000%00:00 (00:00)
101 Avoid - Sensory Overload Apr 8, 2014 $4.9969% (87%)20,000 .. 50,0000%00:00 (00:00)
102 Syrian Warfare Feb 21, 2017 $14.9969% (87%)50,000 .. 100,0000%00:00 (00:00)
103 Spider: Rite of the Shrouded Moon Aug 6, 2015 $9.9969% (87%)20,000 .. 50,0000%00:00 (00:00)
104 Spooky Cats Jun 4, 2015 $2.9969% (87%)20,000 .. 50,0000%00:00 (00:00)
105 The Haunted: Hells Reach Oct 24, 2011 $8.9969% (87%/51%)50,000 .. 100,0000%00:00 (00:00)
106 Blacksea Odyssey Jun 1, 2016 $9.9969% (87%/74%)20,000 .. 50,0000%00:00 (00:00)
107 The Tiny Tale 2 Jan 30, 2015 $6.99N/A (N/A)0 .. 20,0000%00:00 (00:00)
108 Graviteam Tactics: Mius-Front Mar 4, 2016 $34.9969% (87%)0 .. 20,0000%00:00 (00:00)
109 Spectromancer Feb 11, 2009 $9.9969% (87%)20,000 .. 50,0000%00:00 (00:00)
110 Command: Northern Inferno Oct 22, 2015 $19.99N/A (N/A)0 .. 20,0000%00:00 (00:00)
111 Super Chibi Knight Jun 24, 2015 $4.9966% (86%)20,000 .. 50,0000%00:00 (00:00)
112 Steel Rain Dec 3, 2015 $9.9966% (86%)0 .. 20,0000%00:00 (00:00)
113 Meltdown Jun 5, 2014 $6.9966% (86%)50,000 .. 100,0000%00:00 (00:00)
114 Dustoff Heli Rescue Mar 6, 2015 $3.9966% (86%)20,000 .. 50,0000%00:00 (00:00)
115 Star Ruler Sep 20, 2010 $9.9966% (86%)100,000 .. 200,0000.45%01:34 (00:31)
116 Arcane Sorcery Sep 15, 2015 $4.99N/A (N/A)0 .. 20,0000%00:00 (00:00)
117 Age of Wonders Shadow Magic Oct 2010 $9.9966% (86%/82%)100,000 .. 200,0000%00:00 (00:00)
118 Executive Assault Jul 17, 2015 $12.9966% (86%)20,000 .. 50,0000%00:00 (00:00)
119 Supreme Commander Sep 28, 2011 $12.9966% (86%/86%)500,000 .. 1,000,0000.48%05:50 (07:38)
120 N2O: Nitrous Oxide Jun 29, 2015 $4.99N/A (N/A)0 .. 20,0000%00:00 (00:00)
121 Slash or Die Jun 3, 2016 $2.9966% (86%)20,000 .. 50,0000%00:00 (00:00)
122 NOBUNAGA'S AMBITION: Souzou (Traditional Chinese version) Aug 2014 $24.9963% (85%)20,000 .. 50,0005%00:45 (00:15)
123 ShootMania Storm Apr 10, 2013 $19.9963% (85%/76%)50,000 .. 100,0000%00:00 (00:00)
124 Interloper May 21, 2015 Free63% (85%/77%)50,000 .. 100,0000.3%142:55 (47:38)
125 Gurgamoth Feb 16, 2016 $4.9963% (85%)50,000 .. 100,0000%00:00 (00:00)
126 Ghost Master Dec 21, 2006 $4.9963% (85%/81%)100,000 .. 200,0001.09%01:02 (01:01)
127 Rooks Keep Dec 5, 2014 $7.9963% (85%)20,000 .. 50,0000%00:00 (00:00)
128 Legend (1994) Nov 10, 2015 $4.99N/A (N/A)0 .. 20,0000%00:00 (00:00)
129 Western 1849 Reloaded Feb 10, 2017 $4.9963% (85%)0 .. 20,0000%00:00 (00:00)
130 VelocityUltra Dec 12, 2013 $9.9963% (85%)50,000 .. 100,0000%00:00 (00:00)
131 ENSLAVED: Odyssey to the West Premium Edition Oct 24, 2013 $19.9963% (85%/70%)200,000 .. 500,0000%00:00 (00:00)
132 Last Knight: Rogue Rider Edition Oct 3, 2014 $7.9963% (85%)20,000 .. 50,0000%00:00 (00:00)
133 Magnifico Dec 2, 2014 $4.9963% (85%)50,000 .. 100,0000%00:00 (00:00)
134 The Way May 20, 2016 $14.9963% (85%/67%)50,000 .. 100,0000%00:00 (00:00)
135 Delta Force 2 Jun 18, 2009 $4.9961% (84%)20,000 .. 50,0000%00:00 (00:00)
136 CRYPTARK Jun 20, 2017 $14.9961% (84%/80%)50,000 .. 100,0000%00:00 (00:00)
137 GIBZ Apr 7, 2017 $7.9961% (84%)20,000 .. 50,0000%00:00 (00:00)
138 Demons with Shotguns Apr 25, 2016 $0.9961% (84%)0 .. 20,0000%00:00 (00:00)
139 Foresight Nov 28, 2014 $4.99N/A (N/A)0 .. 20,0000%00:00 (00:00)
140 Neon Shadow Aug 25, 2016 $4.9961% (84%)0 .. 20,0000%00:00 (00:00)
141 Sudden Strike 2 Gold May 22, 2017 $5.9961% (84%)0 .. 20,0003.03%00:46 (00:15)
142 Ballistic Tanks Sep 20, 2016 $4.9961% (84%)0 .. 20,00010%00:13 (00:05)
143 Act of War: Direct Action Mar 12, 2008 $2.9961% (84%/82%)20,000 .. 50,0000%00:00 (00:00)
144 Super Furball May 13, 2014 $3.99N/A (N/A)0 .. 20,0000%00:00 (00:00)
145 The Men of Yoshiwara: Kikuya Oct 14, 2015 $29.9961% (84%)0 .. 20,0000%00:00 (00:00)
146 Weapon of Choice Sep 23, 2015 $4.99N/A (N/A)0 .. 20,0000%00:00 (00:00)
147 Fat Chicken Dec 4, 2014 $9.99N/A (N/A)0 .. 20,0000%00:00 (00:00)
148 Galaxy Admirals Jan 17, 2017 $1.9958% (83%)50,000 .. 100,0000%00:00 (00:00)
149 Orbital Gear Aug 7, 2014 $9.9958% (83%/59%)200,000 .. 500,0000.17%00:08 (00:02)
150 TY the Tasmanian Tiger 4 Sep 17, 2015 $5.9958% (83%)20,000 .. 50,0000%00:00 (00:00)
151 Battle Group 2 Jun 13, 2014 $7.9958% (83%)50,000 .. 100,0000%00:00 (00:00)
152 Yomi May 8, 2015 $14.9958% (83%)0 .. 20,0000%00:00 (00:00)
153 NOBUNAGA'S AMBITION: Sphere of Influence Sep 1, 2015 $59.9958% (83%/70%)20,000 .. 50,0000%00:00 (00:00)
154 Eador: Genesis Aug 7, 2009 $5.9958% (83%)50,000 .. 100,0000.75%01:36 (00:32)
155 Decisive Campaigns: The Blitzkrieg from Warsaw to Paris Aug 26, 2010 $39.99N/A (N/A)0 .. 20,0000%00:00 (00:00)
156 Advanced Tactics Gold Apr 12, 2011 $29.9958% (83%)0 .. 20,0000%00:00 (00:00)
157 Ace of Protectors Jun 27, 2016 $1.9958% (83%)20,000 .. 50,0001.22%02:03 (00:41)
158 Crush Your Enemies Jul 13, 2016 $9.9956% (82%/63%)20,000 .. 50,0000%00:00 (00:00)
159 Bulletstorm: Full Clip Edition Apr 7, 2017 $39.9956% (82%/76%)50,000 .. 100,0004.52%01:23 (01:55)
160 Rack N Ruin Sep 1, 2015 $9.9956% (82%)0 .. 20,0000%00:00 (00:00)
161 Square Brawl Oct 22, 2015 $4.9956% (82%)0 .. 20,0000%00:00 (00:00)
162 PixelJunk Shooter Ultimate Oct 21, 2015 $9.9956% (82%)0 .. 20,0000%00:00 (00:00)
163 htoL#NiQ: The Firefly Diary / htoL#NiQ-ホタルノニッキ- May 18, 2016 $3.9954% (81%)20,000 .. 50,0003.33%00:07 (00:02)
164 Fantasy Wars Aug 6, 2010 $4.9954% (81%/67%)50,000 .. 100,0000%00:00 (00:00)
165 In Verbis Virtus Apr 3, 2015 $19.9954% (81%)50,000 .. 100,0001.46%00:36 (00:14)
166 Conflict Desert Storm May 28, 2012 $6.9954% (81%/56%)20,000 .. 50,0000%00:00 (00:00)
167 Toadled Sep 22, 2016 $0.9954% (81%)50,000 .. 100,0000%00:00 (00:00)
168 Supreme Ruler 2020 Gold Jul 9, 2009 $9.9954% (81%/65%)50,000 .. 100,0000%00:00 (00:00)
169 ROD: Revolt Of Defense Aug 12, 2016 $0.9954% (81%)20,000 .. 50,0000%00:00 (00:00)
170 Blade Arcus from Shining: Battle Arena Jul 28, 2016 $29.9954% (81%)0 .. 20,0000%00:00 (00:00)
171 Shadow Ops: Red Mercury Sep 17, 2004 $6.9954% (81%/61%)20,000 .. 50,0000%00:00 (00:00)
172 Tiki Man Jun 4, 2015 $0.9954% (81%)20,000 .. 50,0000.83%00:56 (00:18)
173 Gun Metal Sep 23, 2003 $2.9954% (81%)200,000 .. 500,0000.13%01:35 (00:31)
174 Locoland Nov 22, 2003 $4.9952% (80%)0 .. 20,0000%00:00 (00:00)
175 Conquest of Elysium 3 Oct 24, 2012 $9.9952% (80%)20,000 .. 50,0000%00:00 (00:00)
176 She Wants Me Dead May 13, 2016 $7.9952% (80%)0 .. 20,0003.85%03:05 (01:01)
177 Enemy Mind Jun 6, 2014 $9.9952% (80%)200,000 .. 500,0000.35%00:13 (00:08)
178 Hail to the King: Deathbat Oct 30, 2014 $5.9952% (80%)0 .. 20,0000%00:00 (00:00)
179 Legends of Callasia Jun 10, 2016 Free52% (80%)50,000 .. 100,0000%00:00 (00:00)
180 rymdkapsel Jan 30, 2014 $7.9952% (80%/77%)0 .. 20,0000%00:00 (00:00)
181 Disciples Sacred Lands Gold Oct 4, 1999 $7.9952% (80%)20,000 .. 50,0000%00:00 (00:00)
182 Trigger Runners Mar 3, 2016 $1.9952% (80%)0 .. 20,0000%00:00 (00:00)
183 Junk Jack Nov 30, 2016 $14.9952% (80%)0 .. 20,0000%00:00 (00:00)
184 Romance of the Three Kingdoms Ⅴ with Power Up Kit / 三國志Ⅴ with パワーアップキット Apr 18, 2017 $13.99N/A (N/A)0 .. 20,0000%00:00 (00:00)
185 Bet On Soldier Sep 26, 2005 $7.9952% (80%)20,000 .. 50,0000%00:00 (00:00)
186 Run Rabbit Run Mar 31, 2016 $3.9952% (80%)0 .. 20,0000%00:00 (00:00)
187 Zeno Clash 2 Apr 30, 2013 $14.9952% (80%)200,000 .. 500,0000%00:00 (00:00)
188 Monday Night Combat Jan 24, 2011 $4.9952% (80%/82%)200,000 .. 500,0000.31%01:11 (00:23)
189 Fleet Command Oct 26, 2006 $9.9952% (80%)50,000 .. 100,0000%00:00 (00:00)
190 Vietnam ‘65 Mar 5, 2015 $9.9952% (80%/81%)20,000 .. 50,0000%00:00 (00:00)
191 Child Of Ault Jan 24, 2017 $9.99N/A (N/A)0 .. 20,0003.85%01:43 (00:34)
192 Graviteam Tactics: Operation Star Mar 22, 2012 $29.9952% (80%)20,000 .. 50,0000%00:00 (00:00)
193 Bloodsports.TV Mar 30, 2015 $9.9952% (80%/69%)100,000 .. 200,0000%00:00 (00:00)
194 Perimeter May 21, 2004 $3.9952% (80%/77%)20,000 .. 50,0001.4%04:32 (03:01)
195 Star Wolves 3: Civil War Mar 2, 2010 $4.9952% (80%)100,000 .. 200,0000%00:00 (00:00)
196 Envoy Mar 17, 2016 $4.9952% (80%)50,000 .. 100,0000%00:00 (00:00)
197 Fate of the World Feb 28, 2011 $9.9949% (79%/70%)50,000 .. 100,0000%00:00 (00:00)
198 Age of Gladiators Feb 25, 2016 $9.9949% (79%)50,000 .. 100,0000%00:00 (00:00)
199 TRON RUN/r Feb 16, 2016 $19.9949% (79%)0 .. 20,0000%00:00 (00:00)
200 Fortified Feb 3, 2016 $14.9949% (79%)500,000 .. 1,000,0000.52%08:40 (02:49)
201 TASTEE: Lethal Tactics May 10, 2016 $14.9949% (79%)20,000 .. 50,0001.37%00:52 (00:17)
202 David. Mar 14, 2014 $1.9949% (79%)50,000 .. 100,0000%00:00 (00:00)
203 Pharaonic Apr 28, 2016 $14.9949% (79%)20,000 .. 50,0000%00:00 (00:00)
204 PAC-MAN and the Ghostly Adventures Oct 29, 2013 $19.9949% (79%)0 .. 20,0000%00:00 (00:00)
205 7,62 High Calibre Aug 24, 2007 $4.9949% (79%)50,000 .. 100,0001.01%19:26 (06:28)
206 Making History: The Calm & the Storm Mar 13, 2007 $4.9949% (79%/70%)50,000 .. 100,0000%00:00 (00:00)
207 Demolition Inc. Sep 19, 2011 $5.9949% (79%)50,000 .. 100,0000%00:00 (00:00)
208 Defense Zone 3 Ultra HD Dec 14, 2016 $3.9949% (79%)20,000 .. 50,0000%00:00 (00:00)
209 Nuclear Dawn Sep 26, 2011 $1.7949% (79%/71%)200,000 .. 500,0000%00:00 (00:00)
210 Ironcast Mar 26, 2015 $14.9949% (79%/75%)20,000 .. 50,0000%00:00 (00:00)
211 Protoshift Jan 15, 2016 $0.9949% (79%)0 .. 20,0000%00:00 (00:00)
212 Umihara Kawase Shun: Steam Edition Nov 24, 2015 $11.99N/A (N/A)0 .. 20,0000%00:00 (00:00)
213 Starscape Nov 3, 2008 $7.9949% (79%)0 .. 20,0000%00:00 (00:00)
214 Interplanetary May 12, 2015 N/A49% (79%)100,000 .. 200,0000.72%01:57 (02:24)
215 Caster Mar 19, 2009 $1.9949% (79%)200,000 .. 500,0000%00:00 (00:00)
216 The Legend of Dark Witch Dec 1, 2015 $4.9949% (79%)20,000 .. 50,0000%00:00 (00:00)
217 Aeon Command Jul 3, 2014 $2.9947% (78%)20,000 .. 50,0001.05%04:47 (01:35)
218 Tank Destroyer Mar 9, 2017 $2.9947% (78%)20,000 .. 50,0000%00:00 (00:00)
219 Velocity 2X Aug 19, 2015 $19.9947% (78%)50,000 .. 100,0000%00:00 (00:00)
220 Mold on Pizza Sep 25, 2015 $5.9947% (78%)0 .. 20,0000%00:00 (00:00)
221 Heroes of Might & Magic V: Hammers of Fate Oct 10, 2008 $9.9947% (78%/66%)200,000 .. 500,0000%00:00 (00:00)
222 Klang Sep 22, 2016 $3.7447% (78%/71%)0 .. 20,0000%00:00 (00:00)
223 Deadly 30 Jan 8, 2014 $4.9947% (78%)100,000 .. 200,0000%00:00 (00:00)
224 Gatling Gears Aug 30, 2011 $9.9947% (78%)20,000 .. 50,0000%00:00 (00:00)
225 Strike Suit Zero: Director's Cut Apr 8, 2014 $19.9947% (78%)20,000 .. 50,0000%00:00 (00:00)
226 Zombie Party Jun 10, 2016 $9.9947% (78%)100,000 .. 200,0000%00:00 (00:00)
227 Zombie Killtime Aug 4, 2015 $1.99N/A (N/A)0 .. 20,0000%00:00 (00:00)
228 Anomaly 2 May 15, 2013 $14.9947% (78%/77%)200,000 .. 500,0000%00:00 (00:00)
229 Cultures - 8th Wonder of the World Mar 26, 2015 $4.9947% (78%)50,000 .. 100,0000.51%01:20 (00:26)
230 Dead Rising 2: Off the Record Oct 11, 2011 $19.9947% (78%/66%)200,000 .. 500,0000.49%03:22 (03:21)
231 Advent Rising Sep 14, 2006 $5.9947% (78%/70%)50,000 .. 100,0000%00:00 (00:00)
232 Anomaly Warzone Earth Mobile Campaign Nov 6, 2013 $4.9947% (78%)100,000 .. 200,0000%00:00 (00:00)
233 Blue Effect VR Feb 8, 2017 $14.9947% (78%)0 .. 20,00022.22%01:13 (00:48)
234 The Political Machine 2016 Feb 4, 2016 $9.9946% (77%)50,000 .. 100,0001.47%00:51 (00:33)
235 Dominions 3: The Awakening Sep 10, 2013 $19.9946% (77%/82%)0 .. 20,0000%00:00 (00:00)
236 Curse of the Crescent Isle DX Aug 21, 2015 $0.9946% (77%)0 .. 20,0000%00:00 (00:00)
237 A Blind Legend Apr 7, 2016 $6.9946% (77%)0 .. 20,0000%00:00 (00:00)
238 Sky Gamblers: Storm Raiders Jan 7, 2015 $9.9946% (77%)0 .. 20,0000%00:00 (00:00)
239 King of Dragon Pass Jul 28, 2015 $11.9946% (77%)20,000 .. 50,0000%00:00 (00:00)
240 McDROID Sep 5, 2014 $9.9946% (77%)0 .. 20,0000%00:00 (00:00)
241 Starchaser: Priestess of the Night Sky Jul 24, 2015 $9.99N/A (N/A)0 .. 20,0000%00:00 (00:00)
242 Vector Strain Dec 9, 2015 $4.9946% (77%)20,000 .. 50,0000%00:00 (00:00)
243 Age of Wonders Oct 2010 $5.9946% (77%)100,000 .. 200,0000%00:00 (00:00)
244 Dangerous Waters Feb 7, 2006 $14.9946% (77%/82%)50,000 .. 100,0002.08%00:29 (00:09)
245 Afghanistan '11 Mar 23, 2017 $29.9946% (77%)0 .. 20,0000%00:00 (00:00)
246 Ninjahtic Jul 6, 2015 $1.9946% (77%)0 .. 20,0000%00:00 (00:00)
247 Warhammer 40,000: Armageddon Nov 26, 2014 $39.9946% (77%/68%)20,000 .. 50,0000%00:00 (00:00)
248 Warlords Battlecry III Jan 22, 2016 $5.9946% (77%/73%)20,000 .. 50,0000%00:00 (00:00)
249 Jim Power -The Lost Dimension Sep 30, 2015 $4.99N/A (N/A)0 .. 20,0000%00:00 (00:00)
250 Extravaganza Rising Jul 21, 2016 N/AN/A (N/A)20,000 .. 50,0000%00:00 (00:00)
251 Making History II: The War of the World Aug 27, 2010 $14.9944% (76%/38%)20,000 .. 50,0000%00:00 (00:00)
252 Star Realms Mar 8, 2016 Free44% (76%)100,000 .. 200,0000%00:00 (00:00)
253 Battlezone Gold Edition May 11, 2017 $34.9944% (76%)0 .. 20,0000%00:00 (00:00)
254 Painkiller Hell & Damnation Oct 31, 2012 $19.9944% (76%/64%)500,000 .. 1,000,0000.16%00:13 (00:04)
255 Star Hammer: The Vanguard Prophecy Jun 4, 2015 $19.9944% (76%/69%)0 .. 20,0000%00:00 (00:00)
256 Rocket Knight May 11, 2010 $14.9944% (76%/63%)0 .. 20,0000%00:00 (00:00)
257 Deadlings: Rotten Edition Nov 11, 2014 $3.9944% (76%)50,000 .. 100,0000%00:00 (00:00)
258 Olympia Rising Jul 23, 2015 $4.9944% (76%)20,000 .. 50,0000%00:00 (00:00)
259 Mysterium: A Psychic Clue Game Jan 12, 2017 $6.9944% (76%)50,000 .. 100,0000.36%01:54 (00:38)
260 Corgi Warlock Dec 3, 2015 $1.9944% (76%)20,000 .. 50,0000%00:00 (00:00)
261 Cashtronauts Sep 1, 2016 $2.9944% (76%)0 .. 20,0000%00:00 (00:00)
262 BloodRayne Sep 14, 2006 $9.9944% (76%/65%)50,000 .. 100,0000%00:00 (00:00)
263 Victory At Sea Aug 8, 2014 $24.9942% (75%)20,000 .. 50,0000%00:00 (00:00)
264 Z Jul 4, 2014 $6.9942% (75%)100,000 .. 200,0000%00:00 (00:00)
265 CivCity: Rome Apr 6, 2007 $9.9942% (75%/67%)50,000 .. 100,0000%00:00 (00:00)
266 Battle Mages: Sign of Darkness Apr 13, 2006 $4.9942% (75%)0 .. 20,0000%00:00 (00:00)
267 Chaser Jul 16, 2010 $1.2442% (75%/66%)50,000 .. 100,0000.68%01:57 (00:39)
268 Hunting Unlimited 2008 Jan 29, 2008 $9.99N/A (N/A)20,000 .. 50,0000%00:00 (00:00)
269 Livelock Aug 30, 2016 $9.9942% (75%/73%)20,000 .. 50,0000%00:00 (00:00)
270 Bubsy Two-Fur Dec 17, 2015 $4.9942% (75%)20,000 .. 50,0000%00:00 (00:00)
271 A.R.E.S. Extinction Agenda EX Oct 3, 2014 $9.9942% (75%)0 .. 20,0000%00:00 (00:00)
272 After The End: The Harvest Jun 2, 2017 $4.9942% (75%)20,000 .. 50,0000%00:00 (00:00)
273 Rocketbirds 2 Evolution Jan 26, 2017 $6.9942% (75%)20,000 .. 50,0000%00:00 (00:00)
274 Platformines Mar 28, 2014 $9.9942% (75%/67%)100,000 .. 200,0000%00:00 (00:00)
275 Vampire of the Sands Jul 17, 2015 $4.9942% (75%)20,000 .. 50,0000%00:00 (00:00)
276 Perimeter: Emperor's Testament Aug 29, 2006 $3.99N/A (N/A/72%)20,000 .. 50,0000%00:00 (00:00)
277 Heaven Forest NIGHTS Mar 14, 2017 $0.9942% (75%)100,000 .. 200,0000.19%03:31 (01:10)
278 Riddled Corpses Jun 2, 2015 $7.9942% (75%)20,000 .. 50,0000%00:00 (00:00)
279 Onechanbara Z2: Chaos Jun 2, 2016 $39.9942% (75%)0 .. 20,0000%00:00 (00:00)
280 Civil War II Sep 17, 2013 $39.9942% (75%)0 .. 20,0000%00:00 (00:00)
281 Fist Puncher Jun 21, 2013 $9.9942% (75%/73%)20,000 .. 50,0000%00:00 (00:00)
282 Death by Game Show Jan 22, 2016 $9.9942% (75%)20,000 .. 50,0000%00:00 (00:00)
283 TableTop Soccer Apr 22, 2016 $0.9940% (74%)0 .. 20,0000%00:00 (00:00)
284 Cuban Missile Crisis May 6, 2005 $4.9940% (74%)20,000 .. 50,0000%00:00 (00:00)
285 Viktor Jun 13, 2014 $7.9940% (74%)20,000 .. 50,0000%00:00 (00:00)
286 BossConstructor Oct 24, 2016 $14.9940% (74%)0 .. 20,0000%00:00 (00:00)
287 Distant Worlds: Universe May 23, 2014 $59.9940% (74%/81%)50,000 .. 100,0002.08%02:51 (00:57)
288 Ubersoldier II Jul 22, 2008 $9.9940% (74%/62%)20,000 .. 50,0001.01%00:03 (00:01)
289 WARSHIFT Oct 12, 2016 $12.9940% (74%)20,000 .. 50,0000%00:00 (00:00)
290 Smell Of Death Jul 4, 2016 $9.9940% (74%)0 .. 20,0000%00:00 (00:00)
291 Spirits of Xanadu Mar 26, 2015 $4.9940% (74%)20,000 .. 50,0000%00:00 (00:00)
292 Master Reboot Oct 29, 2013 $14.9940% (74%/59%)50,000 .. 100,0000%00:00 (00:00)
293 Albino Lullaby: Episode 1 Sep 15, 2015 $9.9940% (74%)20,000 .. 50,0000%00:00 (00:00)
294 Monster Monpiece Mar 14, 2017 $19.9940% (74%)0 .. 20,0002.86%04:20 (02:53)
295 Making History: The Great War Jan 29, 2015 $29.9940% (74%)20,000 .. 50,0000%00:00 (00:00)
296 Supreme Ruler Ultimate Oct 17, 2014 $19.9938% (73%)20,000 .. 50,0004.17%00:03 (00:01)
297 Divinity: Dragon Commander Aug 6, 2013 $39.9938% (73%)200,000 .. 500,0001.1%00:37 (00:25)
298 FEIST Jul 23, 2015 $9.9938% (73%/65%)20,000 .. 50,0001.72%00:35 (00:11)
299 Sid Meier’s Ace Patrol Aug 27, 2013 $4.9938% (73%)500,000 .. 1,000,0000%00:00 (00:00)
300 Gold Rush! Anniversary Nov 7, 2014 $5.9938% (73%)100,000 .. 200,0000.24%06:49 (02:16)
301 Hot Tin Roof: The Cat That Wore A Fedora Feb 20, 2015 $14.9938% (73%/66%)100,000 .. 200,0000%00:00 (00:00)
302 Rex Rocket Aug 5, 2014 $4.9938% (73%)20,000 .. 50,0000%00:00 (00:00)
303 The Aquatic Adventure of the Last Human Jan 19, 2016 $9.9938% (73%/76%)0 .. 20,0000%00:00 (00:00)
304 Commander: The Great War Nov 12, 2012 $29.9938% (73%)0 .. 20,0000%00:00 (00:00)
305 Battle Fleet 2 Nov 20, 2014 $14.9938% (73%)20,000 .. 50,0000%00:00 (00:00)
306 Alarameth TD Jun 23, 2015 $4.99N/A (N/A)0 .. 20,0000%00:00 (00:00)
307 Disney Planes Aug 6, 2013 $19.99N/A (N/A)0 .. 20,0000%00:00 (00:00)
308 Auro: A Monster-Bumping Adventure Apr 13, 2016 $6.9936% (72%)0 .. 20,0000%00:00 (00:00)
309 Wyv and Keep: The Temple of the Lost Idol Aug 8, 2014 $14.9936% (72%)20,000 .. 50,0000%00:00 (00:00)
310 Elliot Quest Nov 10, 2014 $9.9936% (72%)20,000 .. 50,0000%00:00 (00:00)
311 Sengoku Jidai: Shadow of the Shogun May 19, 2016 $29.9936% (72%/85%)0 .. 20,0000%00:00 (00:00)
312 Deadnaut Nov 27, 2014 $9.9936% (72%)0 .. 20,0000%00:00 (00:00)
313 VRZ: Torment May 18, 2017 $9.9936% (72%)0 .. 20,0000%00:00 (00:00)
314 King Arthur - The Role-playing Wargame Nov 24, 2009 $9.9936% (72%)200,000 .. 500,0000.7%01:18 (00:26)
315 REDCON Apr 22, 2016 $5.9936% (72%)0 .. 20,0000%00:00 (00:00)
316 Smithy Jun 3, 2016 $3.99N/A (N/A)50,000 .. 100,0000%00:00 (00:00)
317 Pongo May 14, 2015 $0.9936% (72%)100,000 .. 200,0000%00:00 (00:00)
318 Elven Legacy Apr 7, 2009 $4.9936% (72%/71%)50,000 .. 100,0000%00:00 (00:00)
319 Pick a Hero Jun 9, 2016 $1.99N/A (N/A)0 .. 20,0000%00:00 (00:00)
320 AirMech Command Mar 8, 2017 $19.9936% (72%)0 .. 20,0000%00:00 (00:00)
321 Rise & Shine Jan 13, 2017 $14.9936% (72%)20,000 .. 50,0001.08%01:41 (00:33)
322 Lost Planet: Extreme Condition Jun 26, 2007 $14.9936% (72%/66%)200,000 .. 500,0000%00:00 (00:00)
323 Airship Dragoon Aug 26, 2014 $19.99N/A (N/A)0 .. 20,0000%00:00 (00:00)
324 Warp Mar 21, 2012 $9.9936% (72%)20,000 .. 50,0000%00:00 (00:00)
325 Wildlife Park 2 - Crazy Zoo Mar 30, 2007 $3.99N/A (N/A)20,000 .. 50,0000%00:00 (00:00)
326 Cast of the Seven Godsends - Redux Jul 20, 2015 $9.9936% (72%)20,000 .. 50,0000%00:00 (00:00)
327 Tom Clancy's EndWar Feb 25, 2009 $9.9936% (72%/68%)50,000 .. 100,0000%00:00 (00:00)
328 Retrovirus Jan 31, 2013 $9.9936% (72%/70%)20,000 .. 50,0000%00:00 (00:00)
329 Heroes of Arca Feb 16, 2017 Free35% (71%)0 .. 20,0000%00:00 (00:00)
330 A.R.E.S.: Extinction Agenda Jan 19, 2011 $4.9935% (71%/68%)100,000 .. 200,0000%00:00 (00:00)
331 rooMaze Mar 3, 2017 $1.9935% (71%)100,000 .. 200,0000%00:00 (00:00)
332 FIVE: Champions of Canaan Sep 27, 2016 $3.9935% (71%)0 .. 20,0000%00:00 (00:00)
333 Cross of the Dutchman Sep 10, 2015 $8.9935% (71%/59%)20,000 .. 50,0000%00:00 (00:00)
334 There Came an Echo Feb 24, 2015 $14.9935% (71%/58%)20,000 .. 50,0000%00:00 (00:00)
335 The Last Federation Apr 18, 2014 $19.9935% (71%/72%)50,000 .. 100,0000%00:00 (00:00)
336 Civil War: Battle of Petersburg Feb 8, 2017 $0.9935% (71%)0 .. 20,0001.05%01:31 (00:30)
337 Zoo Empire Aug 1, 2004 $6.99N/A (N/A/59%)0 .. 20,0000%00:00 (00:00)
338 Banzai Escape Feb 29, 2016 $5.9935% (71%)20,000 .. 50,0000%00:00 (00:00)
339 Phoning Home Feb 7, 2017 $19.9935% (71%/61%)20,000 .. 50,0001.56%02:12 (00:44)
340 LEGO Indiana Jones 2: The Adventure Continues Feb 18, 2010 $19.9935% (71%/66%)50,000 .. 100,0003.03%05:17 (03:31)
341 Battle Time Sep 29, 2016 $0.9935% (71%)50,000 .. 100,0000.6%01:04 (00:21)
342 Revolution Under Siege Gold Jul 2, 2015 $24.9933% (70%)0 .. 20,0000%00:00 (00:00)
343 BitMaster Oct 12, 2016 $2.9933% (70%)200,000 .. 500,0000%00:00 (00:00)
344 Collapse Sep 25, 2008 $19.9933% (70%)20,000 .. 50,0000%00:00 (00:00)
345 Panzer Tactics HD May 22, 2014 $9.9933% (70%/69%)20,000 .. 50,0000%00:00 (00:00)
346 Lux Delux May 1, 2015 $9.9933% (70%)20,000 .. 50,0000%00:00 (00:00)
347 Incandescent Jun 30, 2015 $0.9933% (70%)20,000 .. 50,0000%00:00 (00:00)
348 Strategy & Tactics: Wargame Collection Apr 22, 2016 $9.9933% (70%)20,000 .. 50,0000%00:00 (00:00)
349 Brigade E5: New Jagged Union Oct 17, 2006 $3.9933% (70%/41%)0 .. 20,0002.22%01:48 (00:36)
350 8-Bit Commando Jul 27, 2011 $2.9931% (69%)50,000 .. 100,0000%00:00 (00:00)
351 Sol 0: Mars Colonization Jan 15, 2016 $3.9931% (69%)20,000 .. 50,0000%00:00 (00:00)
352 Othello Aug 5, 2016 $9.9931% (69%)0 .. 20,0000%00:00 (00:00)
353 Spud's Quest Jul 31, 2014 $7.99N/A (N/A)0 .. 20,0000%00:00 (00:00)
354 The Superfluous May 19, 2017 $4.99N/A (N/A)0 .. 20,0000%00:00 (00:00)
355 The Nightmare Cooperative Jul 16, 2014 $4.9931% (69%)50,000 .. 100,0000%00:00 (00:00)
356 Space Colony: Steam Edition Apr 30, 2015 $14.9931% (69%/74%)20,000 .. 50,0000%00:00 (00:00)
357 Jagged Alliance 2 - Wildfire Nov 16, 2012 $6.9931% (69%)200,000 .. 500,0000.52%04:29 (03:31)
358 Little King's Story Aug 5, 2016 $19.9931% (69%/62%)0 .. 20,0000%00:00 (00:00)
359 Alea Jacta Est Sep 27, 2012 $24.9930% (68%)0 .. 20,0000%00:00 (00:00)
360 The Living Dungeon Nov 2, 2015 $9.9930% (68%)0 .. 20,0000%00:00 (00:00)
361 Guns n Zombies Oct 30, 2014 $7.9930% (68%)100,000 .. 200,0000%00:00 (00:00)
362 Gates of Horizon Dec 18, 2014 Free30% (68%)0 .. 20,0000%00:00 (00:00)
363 Bedlam Oct 13, 2015 $12.9930% (68%/54%)100,000 .. 200,0000.32%02:08 (00:42)
364 Warrior Kings Apr 13, 2002 $9.9930% (68%/73%)0 .. 20,0000%00:00 (00:00)
365 ManaCollect Apr 17, 2015 $6.9930% (68%)0 .. 20,0000%00:00 (00:00)
366 Scourge of War: Waterloo Nov 19, 2015 $49.9930% (68%)0 .. 20,0000%00:00 (00:00)
367 Royal Defense Nov 6, 2014 $4.9930% (68%)50,000 .. 100,0000.38%02:38 (00:52)
368 Pigmentone Jul 8, 2016 $1.99N/A (N/A)0 .. 20,0005.13%02:34 (01:42)
369 YAIBA: NINJA GAIDEN Z Mar 21, 2014 $29.9930% (68%/49%)20,000 .. 50,0000%00:00 (00:00)
370 FIVE: Guardians of David Nov 24, 2015 $9.9928% (67%/66%)20,000 .. 50,0000%00:00 (00:00)
371 Zafehouse: Diaries Sep 6, 2013 $1.9928% (67%)50,000 .. 100,0000%00:00 (00:00)
372 Infinity Runner Jul 14, 2014 $6.9928% (67%/56%)0 .. 20,0000%00:00 (00:00)
373 Toy Odyssey: The Lost and Found Sep 20, 2016 $14.9928% (67%/66%)20,000 .. 50,0000%00:00 (00:00)
374 Space Food Truck Mar 25, 2016 $9.9928% (67%)20,000 .. 50,0000%00:00 (00:00)
375 Kill The Plumber Dec 31, 2015 $4.9928% (67%)0 .. 20,0000%00:00 (00:00)
376 Chainsaw Warrior Oct 7, 2013 $4.9928% (67%)100,000 .. 200,0000%00:00 (00:00)
377 Warhammer 40,000: Armageddon - Da Orks Aug 18, 2016 $19.99N/A (N/A)0 .. 20,0000%00:00 (00:00)
378 Stonerid Dec 18, 2013 $4.9928% (67%)50,000 .. 100,0000%00:00 (00:00)
379 Survivor Squad: Gauntlets Nov 16, 2015 $4.9928% (67%)20,000 .. 50,0000%00:00 (00:00)
380 The Hive Aug 25, 2016 $9.9928% (67%)20,000 .. 50,0000%00:00 (00:00)
381 Toren May 11, 2015 $9.9928% (67%/57%)50,000 .. 100,0000.63%03:56 (01:18)
382 Commander Cool 2 Dec 17, 2015 $2.9927% (66%)20,000 .. 50,0000%00:00 (00:00)
383 1775: Rebellion Sep 29, 2016 $24.99N/A (N/A)0 .. 20,0000%00:00 (00:00)
384 Quick Slick Deadly Sep 21, 2015 $1.9927% (66%)20,000 .. 50,0000%00:00 (00:00)
385 Theatre of War 2: Africa 1943 Jul 9, 2010 $4.9927% (66%/63%)100,000 .. 200,0000.62%00:57 (00:19)
386 Mad Combat Marines Jul 13, 2016 $0.9927% (66%)20,000 .. 50,0000%00:00 (00:00)
387 Nomad Fleet Jul 14, 2015 $4.9927% (66%)20,000 .. 50,0000%00:00 (00:00)
388 Men of War: Condemned Heroes Apr 12, 2012 $7.9927% (66%/57%)100,000 .. 200,0000%00:00 (00:00)
389 Zombie Camp Jul 31, 2016 $1.99N/A (N/A)0 .. 20,0000%00:00 (00:00)
390 RISK: Factions Mar 8, 2011 $9.9927% (66%/77%)50,000 .. 100,0000%00:00 (00:00)
391 Urban Pirate Jun 17, 2016 $6.99N/A (N/A)0 .. 20,0000%00:00 (00:00)
392 Scourge: Outbreak Apr 2, 2014 $7.9927% (66%)100,000 .. 200,0000%00:00 (00:00)
393 1849 May 8, 2014 $14.9927% (66%)20,000 .. 50,0000%00:00 (00:00)
394 Sengoku Sep 15, 2011 $9.9927% (66%/70%)100,000 .. 200,0000.79%00:55 (00:18)
395 March of the Eagles Feb 18, 2013 $19.9927% (66%/71%)50,000 .. 100,0001.02%02:26 (00:48)
396 Zombie City Defense 2 Aug 19, 2016 $9.9927% (66%)0 .. 20,0000%00:00 (00:00)
397 Sky To Fly: Faster Than Wind Mar 25, 2016 $3.9927% (66%)0 .. 20,0000%00:00 (00:00)
398 Fair Strike Feb 5, 2004 $3.99N/A (N/A/56%)0 .. 20,0000%00:00 (00:00)
399 Zombie Tycoon 2: Brainhov's Revenge Dec 9, 2013 $4.9926% (65%)50,000 .. 100,0001.01%02:21 (00:47)
400 The Seven Years War (1756-1763) Oct 30, 2015 $19.9926% (65%)0 .. 20,0000%00:00 (00:00)
401 Marauder Sep 10, 2009 $9.9926% (65%)20,000 .. 50,0002.13%320:06 (106:42)
402 Platypus II Mar 17, 2007 $6.9926% (65%)200,000 .. 500,0000%00:00 (00:00)
403 Assassin’s Creed Chronicles: India Jan 12, 2016 $9.9926% (65%)20,000 .. 50,0000%00:00 (00:00)
404 Ground Breakers Jun 15, 2016 $4.99N/A (N/A)0 .. 20,0003.7%01:15 (00:25)
405 7th Legion Jan 1, 1997 $6.9926% (65%)0 .. 20,0000%00:00 (00:00)
406 Frozen Synapse Prime Nov 14, 2014 $24.9924% (64%/83%)100,000 .. 200,0000%00:00 (00:00)
407 Kaiju-A-GoGo Apr 23, 2015 $9.9924% (64%)20,000 .. 50,0000%00:00 (00:00)
408 Hunters Of The Dead Sep 4, 2014 $4.9924% (64%)20,000 .. 50,0000%00:00 (00:00)
409 Devil's Dare 悪魔の挑戦 Oct 21, 2014 $12.9924% (64%)20,000 .. 50,0000%00:00 (00:00)
410 Theatre of War 2: Kursk 1943 Jul 9, 2010 $4.9924% (64%)50,000 .. 100,0000%00:00 (00:00)
411 Link Apr 22, 2016 $4.99N/A (N/A)0 .. 20,0000%00:00 (00:00)
412 Revenge of Roger Rouge Apr 22, 2016 $0.99N/A (N/A)20,000 .. 50,0000.33%04:02 (01:20)
413 Warlock 2: The Exiled Apr 10, 2014 $19.9924% (64%/73%)50,000 .. 100,0001.15%02:53 (00:57)
414 Disney Pirates of the Caribbean: At Worlds End May 22, 2007 $19.9924% (64%)20,000 .. 50,0000%00:00 (00:00)
415 Zoo Rampage Jul 9, 2014 $3.9924% (64%)20,000 .. 50,0000%00:00 (00:00)
416 Sorcerer King: Rivals Sep 22, 2016 $19.9923% (63%)20,000 .. 50,0000%00:00 (00:00)
417 Port Royale 2 Jun 16, 2009 $4.9923% (63%/75%)50,000 .. 100,0000%00:00 (00:00)
418 Double Dragon IV Jan 30, 2017 $6.9923% (63%/50%)0 .. 20,0000%00:00 (00:00)
419 Malebolgia May 6, 2015 $12.9923% (63%)0 .. 20,0000%00:00 (00:00)
420 The Few Jun 18, 2014 $7.9923% (63%)20,000 .. 50,0000%00:00 (00:00)
421 Jagged Alliance: Crossfire Aug 24, 2012 $14.9923% (63%/63%)100,000 .. 200,0000%00:00 (00:00)
422 Overruled! Sep 15, 2015 $12.9923% (63%)20,000 .. 50,0000%00:00 (00:00)
423 Beasts Battle Jun 15, 2016 $1.9923% (63%)20,000 .. 50,0000%00:00 (00:00)
424 Pixel Boy and the Ever Expanding Dungeon May 30, 2014 $0.9923% (63%)20,000 .. 50,0000%00:00 (00:00)
425 Battle Worlds: Kronos Nov 4, 2013 $19.9923% (63%/71%)20,000 .. 50,0000%00:00 (00:00)
426 A Game of Dwarves Oct 23, 2012 $9.9923% (63%/60%)50,000 .. 100,0000%00:00 (00:00)
427 SPACECOM Sep 17, 2014 $9.9923% (63%/68%)100,000 .. 200,0000.25%02:02 (00:40)
428 Goblin Defenders: Steel‘n’ Wood Nov 23, 2015 $2.9922% (62%)20,000 .. 50,0000%00:00 (00:00)
429 My Super Tower 2 Jan 27, 2017 $0.9922% (62%)50,000 .. 100,0002.38%03:01 (01:00)
430 UnSummoning: the Spectral Horde Dec 21, 2015 FreeN/A (N/A)0 .. 20,0000%00:00 (00:00)
431 4089: Ghost Within Jan 9, 2015 $5.9922% (62%)0 .. 20,0000%00:00 (00:00)
432 Spirit of War Mar 12, 2015 $9.9922% (62%)20,000 .. 50,0001.59%00:38 (00:12)
433 Gnumz: Masters of Defense Dec 21, 2015 $4.9922% (62%)20,000 .. 50,0000.41%02:43 (00:54)
434 Hyperspace Pinball Sep 30, 2015 $2.99N/A (N/A)0 .. 20,0000%00:00 (00:00)
435 Rise: Battle Lines Nov 17, 2015 $1.9922% (62%)0 .. 20,0000%00:00 (00:00)
436 Freight Tycoon Inc. Aug 15, 2007 $4.9922% (62%)20,000 .. 50,0000%00:00 (00:00)
437 To End All Wars Aug 29, 2014 $39.9922% (62%/71%)0 .. 20,0000%00:00 (00:00)
438 War, the Game Jan 12, 2015 $6.9921% (61%/65%)20,000 .. 50,0000%00:00 (00:00)
439 Legions of Steel Jul 16, 2015 $19.99N/A (N/A/64%)0 .. 20,0000%00:00 (00:00)
440 Bombshell Jan 29, 2016 $34.9921% (61%/43%)20,000 .. 50,0000%00:00 (00:00)
441 Disney Epic Mickey 2: The Power of Two Nov 18, 2012 $19.9921% (61%)20,000 .. 50,0002.78%08:04 (02:41)
442 Supreme Ruler: Cold War Jul 29, 2011 $9.9921% (61%/63%)20,000 .. 50,0000%00:00 (00:00)
443 Close Combat - Panthers in the Fog Nov 19, 2012 $39.9921% (61%)0 .. 20,0000%00:00 (00:00)
444 Will Fight for Food: Super Actual Sellout: Game of the Hour Apr 22, 2015 $4.9920% (60%)0 .. 20,0000%00:00 (00:00)
445 Disciples III - Renaissance Steam Special Edition Jul 16, 2010 $14.9920% (60%/56%)100,000 .. 200,0000.4%00:01 (00:00)
446 Men of War: Vietnam Sep 8, 2011 $7.9920% (60%/68%)100,000 .. 200,0000%00:00 (00:00)
447 Spice Road Apr 24, 2014 $19.9920% (60%)0 .. 20,0000%00:00 (00:00)
448 Hybrid Wars Sep 29, 2016 $6.9920% (60%/54%)0 .. 20,0000%00:00 (00:00)
449 Merchants of Kaidan Nov 10, 2014 $14.9920% (60%)100,000 .. 200,0000%00:00 (00:00)
450 Desert Ashes Nov 10, 2014 $4.9920% (60%)20,000 .. 50,0001.09%14:21 (04:47)
451 Call of Duty: Black Ops - Mac Edition Sep 27, 2012 $19.9920% (60%)50,000 .. 100,0000%00:00 (00:00)
452 NOBUNAGA'S AMBITION: Sphere of Influence - Ascension / 信長の野望・創造 戦国立志伝 Mar 23, 2016 $59.9920% (60%)100,000 .. 200,00014.29%12:51 (04:17)
453 Assault on Arnhem Mar 11, 2016 $9.99N/A (N/A)0 .. 20,0000%00:00 (00:00)
454 Heavy Fire: Afghanistan Aug 15, 2014 $2.9920% (60%)20,000 .. 50,0000%00:00 (00:00)
455 Purgatory Jun 22, 2016 $0.9920% (60%)200,000 .. 500,0000.28%04:30 (04:29)
456 Flashback Oct 1, 2013 $9.9920% (60%)20,000 .. 50,0000%00:00 (00:00)
457 Defend Your Crypt Jul 21, 2016 $2.99N/A (N/A)0 .. 20,0003.7%02:31 (00:50)
458 Patrician IV - Steam Special Edition Sep 17, 2010 $14.9918% (59%/66%)100,000 .. 200,0000%00:00 (00:00)
459 Antisquad Oct 31, 2014 $5.9918% (59%)50,000 .. 100,0000%00:00 (00:00)
460 Battleplan: American Civil War Jul 4, 2014 $9.9918% (59%/66%)100,000 .. 200,0000.19%00:26 (00:08)
461 Armada 2526 Gold Edition Feb 28, 2013 $3.5918% (59%/66%)20,000 .. 50,0000%00:00 (00:00)
462 7 Grand Steps: What Ancients Begat Jun 7, 2013 $19.9918% (59%)100,000 .. 200,0000%00:00 (00:00)
463 E.T. Armies Mar 3, 2016 $14.9918% (59%/54%)0 .. 20,0000%00:00 (00:00)
464 Ninjahtic Mind Tricks Jul 16, 2015 $1.99N/A (N/A)0 .. 20,0000%00:00 (00:00)
465 Ceres Oct 16, 2015 $19.9918% (59%/74%)0 .. 20,0000%00:00 (00:00)
466 Wanderlust Adventures Aug 10, 2015 $9.9918% (59%)20,000 .. 50,0000%00:00 (00:00)
467 Woolfe - The Red Hood Diaries Mar 17, 2015 $9.9918% (59%/55%)50,000 .. 100,0000%00:00 (00:00)
468 Skyshine's BEDLAM Sep 16, 2015 $19.9918% (59%/67%)20,000 .. 50,0000%00:00 (00:00)
469 Colonial Conquest Jul 28, 2015 $9.9918% (59%)0 .. 20,0000%00:00 (00:00)
470 Prospekt Feb 18, 2016 $4.9918% (59%)20,000 .. 50,0005.88%01:24 (00:56)
471 Quarantine May 24, 2017 $9.9918% (59%)0 .. 20,0000%00:00 (00:00)
472 Check vs Mate Aug 16, 2012 $19.9917% (58%/69%)0 .. 20,0000%00:00 (00:00)
473 Code of Princess Apr 14, 2016 $14.9917% (58%/53%)0 .. 20,0000%00:00 (00:00)
474 Sir! I'd Like To Report A Bug! Oct 19, 2015 $1.99N/A (N/A)0 .. 20,0000%00:00 (00:00)
475 Woodle Tree 2: Worlds Sep 16, 2016 $3.9917% (58%)50,000 .. 100,0000.64%00:01 (00:00)
476 Cemetery Warrior 3 Feb 3, 2017 $0.9917% (58%)50,000 .. 100,0000%00:00 (00:00)
477 Prophour23 Oct 22, 2014 $9.9917% (58%)0 .. 20,0000%00:00 (00:00)
478 DreamBreak Jul 21, 2016 $6.9916% (57%/46%)20,000 .. 50,0000%00:00 (00:00)
479 Rise of Venice Sep 27, 2013 $19.9916% (57%/66%)50,000 .. 100,0000%00:00 (00:00)
480 Life in Bunker Feb 25, 2016 $15.9916% (57%)0 .. 20,0007.69%00:07 (00:02)
481 Unearthed: Trail of Ibn Battuta - Episode 1 - Gold Edition Jan 3, 2014 $4.9916% (57%)20,000 .. 50,0000%00:00 (00:00)
482 Delve Deeper Sep 24, 2010 $4.9916% (57%)50,000 .. 100,0000%00:00 (00:00)
483 Stay Dead Evolution Feb 4, 2015 $5.9916% (56%)20,000 .. 50,0000%00:00 (00:00)
484 Abalone Apr 23, 2014 $6.9916% (56%)20,000 .. 50,0000%00:00 (00:00)
485 Crazy Forest Jul 6, 2016 $4.9916% (56%)100,000 .. 200,0000%00:00 (00:00)
486 Super Helmets on Fire DX Ultra Edition Plus Alpha Feb 15, 2016 $0.99N/A (N/A)0 .. 20,0000%00:00 (00:00)
487 Horizon Feb 6, 2014 $29.9916% (56%/58%)50,000 .. 100,0000%00:00 (00:00)
488 Story Of the Survivor Feb 16, 2016 $4.99N/A (N/A)50,000 .. 100,0000%00:00 (00:00)
489 VR Journey Dec 15, 2016 $2.99N/A (N/A)20,000 .. 50,0000%00:00 (00:00)
490 Adventure World Aug 2, 2016 $4.99N/A (N/A)0 .. 20,0000%00:00 (00:00)
491 reconquest Dec 16, 2016 $11.9915% (55%)0 .. 20,0000%00:00 (00:00)
492 Pain Train Jan 11, 2017 $0.9915% (55%)50,000 .. 100,0002.87%03:26 (05:00)
493 RESCUE 2: Everyday Heroes Jun 3, 2015 $19.9914% (54%)20,000 .. 50,00011.11%00:26 (00:13)
494 Meridian: Squad 22 Aug 11, 2016 $14.9914% (54%)0 .. 20,0000%00:00 (00:00)
495 Urja Jan 9, 2015 $9.9914% (54%)20,000 .. 50,0000%00:00 (00:00)
496 Wickland Nov 14, 2014 $0.9913% (53%)50,000 .. 100,0000%00:00 (00:00)
497 Sovereignty: Crown of Kings Feb 2, 2017 $24.9913% (53%)0 .. 20,0000%00:00 (00:00)
498 MDK2 HD Jul 30, 2012 $14.9913% (53%/73%)0 .. 20,0000%00:00 (00:00)
499 Armada 2526 Apr 8, 2011 $14.99N/A (N/A/66%)0 .. 20,0000%00:00 (00:00)
500 Tic-Toc-Tower Sep 28, 2015 $2.9913% (53%)0 .. 20,0000%00:00 (00:00)
501 Castle Werewolf 3D Feb 7, 2017 $2.9913% (53%)50,000 .. 100,0000.26%04:32 (01:30)
502 BC Kings Jun 16, 2009 $4.9913% (53%)20,000 .. 50,0000%00:00 (00:00)
503 Weather Lord: The Successor's Path Apr 8, 2015 $4.99N/A (N/A)0 .. 20,0000%00:00 (00:00)
504 Grim Seventh Jan 20, 2017 FreeN/A (N/A)0 .. 20,0000%00:00 (00:00)
505 Dusty Revenge:Co-Op Edition Feb 17, 2014 $4.4913% (52%)50,000 .. 100,0000%00:00 (00:00)
506 Crusaders: Thy Kingdom Come Oct 8, 2009 $9.99N/A (N/A)0 .. 20,0000%00:00 (00:00)
507 The Stalin Subway Oct 5, 2006 $3.9913% (52%)0 .. 20,0000%00:00 (00:00)
508 MinosMaze - The Minotaur's Labyrinth May 1, 2017 $4.99N/A (N/A)0 .. 20,0002.22%04:46 (01:35)
509 Smugglers 5 Apr 11, 2014 $9.9913% (52%)20,000 .. 50,0000%00:00 (00:00)
510 Aggression: Europe Under Fire May 10, 2007 $9.9912% (51%)0 .. 20,0000%00:00 (00:00)
511 Biodrone Battle Jul 16, 2015 $1.9912% (51%)100,000 .. 200,0000%00:00 (00:00)
512 Royal Bounty HD Aug 10, 2015 $2.9912% (51%)0 .. 20,0000%00:00 (00:00)
513 Nightside Apr 2, 2015 $4.9912% (51%)20,000 .. 50,0000%00:00 (00:00)
514 Meridian: New World Apr 4, 2014 $6.9912% (51%/43%)50,000 .. 100,0000%00:00 (00:00)
515 Chronostorm: Siberian Border Nov 20, 2015 $0.99N/A (N/A)0 .. 20,0000%00:00 (00:00)
516 Guncraft Aug 9, 2013 $14.9911% (50%/73%)100,000 .. 200,0000%00:00 (00:00)
517 Megamagic: Wizards of the Neon Age Apr 20, 2016 $9.9911% (50%/67%)20,000 .. 50,0000%00:00 (00:00)
518 Aegis Oct 6, 2016 $2.99N/A (N/A)0 .. 20,0000%00:00 (00:00)
519 Scapeland Mar 31, 2016 $3.9911% (50%)0 .. 20,0000%00:00 (00:00)
520 Rubber and Lead Sep 4, 2015 $4.9911% (50%)20,000 .. 50,0000%00:00 (00:00)
521 Kidnapped Aug 4, 2015 $2.9911% (49%)100,000 .. 200,0000%00:00 (00:00)
522 Albedo: Eyes from Outer Space Apr 10, 2015 $14.9911% (49%/66%)50,000 .. 100,0000%00:00 (00:00)
523 Marvel: Ultimate Alliance 2 Jul 26, 2016 N/A10% (48%)0 .. 20,0002.56%04:37 (01:32)
524 Defence to death May 11, 2017 $1.99N/A (N/A)50,000 .. 100,0000%00:00 (00:00)
525 Star Traders: 4X Empires Nov 18, 2014 $9.9910% (48%)0 .. 20,0000%00:00 (00:00)
526 Odd||Even Apr 6, 2016 $0.9910% (48%)20,000 .. 50,0000%00:00 (00:00)
527 Synonymy Dec 12, 2014 $1.9910% (48%)0 .. 20,0000%00:00 (00:00)
528 Hell Nov 13, 2014 $29.99N/A (N/A)0 .. 20,0000%00:00 (00:00)
529 Blasting Agent: Ultimate Edition Aug 17, 2016 $2.99N/A (N/A)0 .. 20,0000%00:00 (00:00)
530 Disposable Heroes Oct 1, 2015 $4.9910% (47%)20,000 .. 50,0001.79%00:30 (00:10)
531 Hero Generations Apr 10, 2015 $5.9910% (47%)0 .. 20,0000%00:00 (00:00)
532 Island Defense Jul 23, 2015 $1.9910% (47%)50,000 .. 100,0000%00:00 (00:00)
533 No Pineapple Left Behind Feb 18, 2016 $6.99N/A (N/A/59%)0 .. 20,0000%00:00 (00:00)
534 The Stalin Subway: Red Veil Oct 5, 2006 $2.999% (46%)20,000 .. 50,0000%00:00 (00:00)
535 Carrier Command: Gaea Mission Sep 28, 2012 $32.999% (46%/60%)200,000 .. 500,0000%00:00 (00:00)
536 HitBox Jan 30, 2017 Free9% (46%)0 .. 20,0000%00:00 (00:00)
537 Magic Quest May 6, 2016 $1.99N/A (N/A)50,000 .. 100,0000%00:00 (00:00)
538 World War 2: Time of Wrath Jun 15, 2009 $4.999% (46%)20,000 .. 50,0000%00:00 (00:00)
539 Pride of Nations Jun 7, 2011 $19.999% (46%/70%)20,000 .. 50,0000%00:00 (00:00)
540 PeriAreion Feb 19, 2015 $5.99N/A (N/A)0 .. 20,0000%00:00 (00:00)
541 Z Steel Soldiers Aug 1, 2014 $12.999% (46%)50,000 .. 100,0000%00:00 (00:00)
542 Skyward Collapse May 23, 2013 $4.999% (45%/64%)100,000 .. 200,0000%00:00 (00:00)
543 Impire Feb 14, 2013 $19.999% (45%/45%)100,000 .. 200,0000%00:00 (00:00)
544 Crossfire: Dungeons Jan 15, 2007 $3.999% (45%)0 .. 20,0000%00:00 (00:00)
545 ALONE IN SPACE Feb 22, 2016 $9.999% (45%)0 .. 20,0000%00:00 (00:00)
546 The Campaign Series: Fall Weiss May 30, 2014 $14.999% (45%)20,000 .. 50,0000%00:00 (00:00)
547 Redemption: Saints And Sinners Nov 18, 2016 $0.999% (45%)50,000 .. 100,0000.75%161:58 (107:58)
548 The Bluecoats: North vs South May 10, 2012 $4.998% (44%)20,000 .. 50,0000%00:00 (00:00)
549 Commander: Conquest of the Americas Jul 30, 2010 $9.998% (44%/68%)50,000 .. 100,0000%00:00 (00:00)
550 Dungeons Feb 10, 2011 $9.998% (43%/65%)200,000 .. 500,0000%00:00 (00:00)
551 The Entente Gold Aug 11, 2003 $1.998% (43%)20,000 .. 50,0000%00:00 (00:00)
552 Vendetta - Curse of Raven's Cry Nov 20, 2015 $29.998% (43%)0 .. 20,0000%00:00 (00:00)
553 Burstfire Sep 24, 2015 N/A7% (42%)50,000 .. 100,0000%00:00 (00:00)
554 Nux Dec 26, 2006 $6.997% (42%)200,000 .. 500,0000%00:00 (00:00)
555 Sword of the Stars II: Enhanced Edition Nov 30, 2012 $19.997% (42%/65%)100,000 .. 200,0000%00:00 (00:00)
556 Samudai Feb 9, 2015 $2.997% (42%)20,000 .. 50,0000%00:00 (00:00)
557 Hydraulic Empire Jul 31, 2015 $7.997% (41%)0 .. 20,0000%00:00 (00:00)
558 Rulers of Nations Jul 16, 2014 $19.997% (41%/63%)0 .. 20,0000%00:00 (00:00)
559 Devils & Demons Oct 6, 2015 $9.997% (41%)20,000 .. 50,0000%00:00 (00:00)
560 Pain Train 2 Mar 16, 2017 $6.997% (40%)20,000 .. 50,0004.76%02:01 (02:01)
561 Knight Adventure Oct 15, 2015 $0.99N/A (N/A)50,000 .. 100,0000%00:00 (00:00)
562 Mechs & Mercs: Black Talons Jan 9, 2015 $9.997% (40%)0 .. 20,0000%00:00 (00:00)
563 Gratuitous Space Battles 2 Apr 16, 2015 $9.996% (39%)20,000 .. 50,0000%00:00 (00:00)
564 Dark Matter Oct 17, 2013 $9.996% (39%)0 .. 20,0000%00:00 (00:00)
565 Strategic War in Europe Mar 21, 2014 $14.996% (39%)20,000 .. 50,0000%00:00 (00:00)
566 Heavy Fire: Shattered Spear Oct 23, 2015 $3.99N/A (N/A)0 .. 20,0000%00:00 (00:00)
567 Infection: Humanity's Last Gasp May 26, 2016 $9.99N/A (N/A)0 .. 20,0001.64%05:32 (01:50)
568 Zombie Apocalypse: Escape The Undead City Jun 17, 2016 $0.996% (38%)0 .. 20,0000%00:00 (00:00)
569 The Kings' Crusade Oct 8, 2010 $9.996% (38%/71%)50,000 .. 100,0000%00:00 (00:00)
570 Wave of Darkness Nov 5, 2015 $29.996% (38%)0 .. 20,0000%00:00 (00:00)
571 Dead But Alive! Southern England Oct 2, 2015 $14.996% (38%)0 .. 20,0000%00:00 (00:00)
572 Lost in Paradise Aug 20, 2015 $2.996% (38%)20,000 .. 50,0000%00:00 (00:00)
573 Dungeons - The Dark Lord Sep 27, 2011 $19.996% (38%/72%)100,000 .. 200,0000%00:00 (00:00)
574 Blue Sheep Mar 31, 2016 $1.99N/A (N/A)0 .. 20,0000%00:00 (00:00)
575 Control Craft 2 Feb 15, 2016 $2.995% (37%)0 .. 20,0003.23%03:03 (02:01)
576 Stellar Impact Apr 12, 2012 $9.995% (37%/74%)50,000 .. 100,0000.69%02:24 (00:48)
577 Tiamat X May 29, 2015 $1.995% (37%)50,000 .. 100,0000.96%02:42 (00:54)
578 Urban Empire Jan 20, 2017 $29.995% (35%/62%)50,000 .. 100,0000%00:00 (00:00)
579 Shadows of War Sep 19, 2014 $2.995% (35%)20,000 .. 50,0000%00:00 (00:00)
580 Sim Junta Aug 18, 2015 $1.995% (35%)0 .. 20,0000%00:00 (00:00)
581 Disciples III - Resurrection Oct 11, 2011 $14.994% (34%/63%)100,000 .. 200,0000%00:00 (00:00)
582 CTU: Counter Terrorism Unit Apr 22, 2016 $4.994% (34%)0 .. 20,0000%00:00 (00:00)
583 Arma Tactics Oct 1, 2013 $8.994% (34%/47%)200,000 .. 500,0000.19%01:28 (00:29)
584 Into the Void Dec 4, 2015 $4.994% (34%)20,000 .. 50,0000%00:00 (00:00)
585 Fallen: A2P Protocol Aug 14, 2015 $9.994% (34%)20,000 .. 50,0007.14%02:30 (00:50)
586 Jagged Alliance Flashback Oct 21, 2014 $19.994% (33%)20,000 .. 50,0000%00:00 (00:00)
587 Kick-Ass 2 Aug 15, 2014 $19.994% (33%)20,000 .. 50,0000%00:00 (00:00)
588 Ranger of the jungle Jul 18, 2016 $3.99N/A (N/A)0 .. 20,0000%00:00 (00:00)
589 Ku: Shroud of the Morrigan Mar 17, 2014 $4.994% (32%)20,000 .. 50,0000%00:00 (00:00)
590 A Game of Thrones - Genesis Sep 28, 2011 $9.994% (31%)100,000 .. 200,0000%00:00 (00:00)
591 Psichodelya Aug 8, 2014 $1.994% (31%)100,000 .. 200,0000%00:00 (00:00)
592 Evopollution Apr 23, 2014 $4.994% (31%)0 .. 20,0000%00:00 (00:00)
593 Power of Defense Aug 4, 2010 $9.99N/A (N/A)0 .. 20,0000%00:00 (00:00)
594 Robotex Nov 18, 2014 $4.993% (30%)100,000 .. 200,0000%00:00 (00:00)
595 Zombies on a Plane Mar 25, 2016 $4.993% (30%)20,000 .. 50,0002.7%00:03 (00:01)
596 Zombie Zoeds May 20, 2015 $2.993% (30%)200,000 .. 500,0000.14%00:58 (00:19)
597 Ground Pounders Jul 15, 2014 $4.99N/A (N/A)0 .. 20,0000%00:00 (00:00)
598 Tank Operations: European Campaign Nov 22, 2013 $19.993% (29%)20,000 .. 50,0000%00:00 (00:00)
599 Defenders of Time Nov 4, 2014 N/AN/A (N/A/55%)0 .. 20,0000%00:00 (00:00)
600 Solar Shifter EX Sep 11, 2015 $4.993% (27%)20,000 .. 50,0000%00:00 (00:00)
601 Gridberd Sep 7, 2015 $6.993% (27%)200,000 .. 500,0000%00:00 (00:00)
602 One Star Apr 17, 2017 $2.993% (25%)50,000 .. 100,0000%00:00 (00:00)
603 Hard Truck Apocalypse: Arcade / Ex Machina: Arcade May 24, 2007 $4.992% (24%)20,000 .. 50,0000%00:00 (00:00)
604 APOX Jan 20, 2011 $14.992% (23%/48%)20,000 .. 50,0000%00:00 (00:00)
605 Elite vs. Freedom May 31, 2016 $4.992% (22%)0 .. 20,0000%00:00 (00:00)
606 The Asskickers-Steam Edition Feb 6, 2015 $9.992% (21%)0 .. 20,0000%00:00 (00:00)
607 Lords of the Black Sun Sep 12, 2014 $29.992% (20%)20,000 .. 50,0000%00:00 (00:00)
608 Gemini Wars Nov 2, 2012 $14.992% (20%/53%)20,000 .. 50,0000%00:00 (00:00)
609 Star Project Aug 4, 2016 $1.992% (19%)100,000 .. 200,0000.2%01:01 (00:20)
610 Human Extinction Simulator Jan 21, 2015 $19.99N/A (N/A)0 .. 20,0000%00:00 (00:00)
611 Prison Tycoon 3: Lockdown Jan 29, 2008 $9.992% (17%)20,000 .. 50,0000%00:00 (00:00)
612 Tryst Sep 14, 2012 $14.99N/A (N/A/50%)0 .. 20,0000%00:00 (00:00)
613 Citadels Jul 25, 2013 $14.991% (13%/20%)20,000 .. 50,0000%00:00 (00:00)
614 Once Bitten, Twice Dead! Jul 17, 2015 $4.991% (13%)20,000 .. 50,0000%00:00 (00:00)
615 Magnetic By Nature Nov 10, 2014 $9.99N/A (N/A)20,000 .. 50,0000%00:00 (00:00)
616 Bloodbath Jun 16, 2014 $14.99N/A (N/A)0 .. 20,0000%00:00 (00:00)

Tags over time:

Access restricted.

This feature is only available to users with special access rights. Sorry.

If you want to proceed, you need to register or log in first and then back Steam Spy on Patreon. Look for Indie or Pro pledge.

Don't forget to use the same email as on Steam Spy!

Owners of this game also own:

Access restricted.

This feature is only available to users with special access rights. Sorry.

If you want to proceed, you need to register or log in first and then back Steam Spy on Patreon. Look for Indie or Pro pledge.

Don't forget to use the same email as on Steam Spy!

Playtime distribution:

Access restricted.

This feature is only available to users with special access rights. Sorry.

If you want to proceed, you need to register or log in first and then back Steam Spy on Patreon. Look for Indie or Pro pledge.

Don't forget to use the same email as on Steam Spy!

Playtime (2 weeks):

Access restricted.

This feature is only available to users with special access rights. Sorry.

If you want to proceed, you need to register or log in first and then back Steam Spy on Patreon. Look for Indie or Pro pledge.

Don't forget to use the same email as on Steam Spy!

User reviews:

Login required.

Please register or log in to see this information.